createdAt,value
2022-10-24T00:00:00.953Z,15.8
2022-10-24T00:01:01.544Z,15.9
2022-10-24T00:02:01.135Z,15.8
2022-10-24T00:03:01.747Z,15.9
2022-10-24T00:04:01.378Z,15.9
2022-10-24T00:05:00.941Z,15.8
2022-10-24T00:06:01.502Z,15.9
2022-10-24T00:07:01.091Z,15.9
2022-10-24T00:08:01.650Z,15.9
2022-10-24T00:09:01.224Z,15.9
2022-10-24T00:10:01.795Z,15.9
2022-10-24T00:11:01.371Z,15.9
2022-10-24T00:12:00.984Z,15.8
2022-10-24T00:13:01.522Z,15.9
2022-10-24T00:14:01.094Z,15.9
2022-10-24T00:15:01.669Z,15.9
2022-10-24T00:16:01.241Z,15.8
2022-10-24T00:17:01.829Z,15.9
2022-10-24T00:18:01.401Z,15.8
2022-10-24T00:19:00.972Z,15.8
2022-10-24T00:20:01.546Z,15.8
2022-10-24T00:21:01.149Z,15.8
2022-10-24T00:22:01.718Z,15.8
2022-10-24T00:23:01.291Z,15.8
2022-10-24T00:24:00.866Z,15.8
2022-10-24T00:25:01.438Z,15.7
2022-10-24T00:26:01.010Z,15.7
2022-10-24T00:27:01.596Z,15.7
2022-10-24T00:28:01.166Z,15.8
2022-10-24T00:30:01.327Z,15.8
2022-10-24T00:31:00.937Z,15.9
2022-10-24T00:32:01.485Z,15.9
2022-10-24T00:33:01.062Z,15.9
2022-10-24T00:34:01.651Z,15.9
2022-10-24T00:35:01.238Z,15.9
2022-10-24T00:36:01.810Z,15.8
2022-10-24T00:37:01.409Z,15.8
2022-10-24T00:38:00.982Z,15.8
2022-10-24T00:39:01.556Z,15.8
2022-10-24T00:40:01.146Z,15.8
2022-10-24T00:41:01.717Z,15.8
2022-10-24T00:42:01.290Z,15.9
2022-10-24T00:43:00.862Z,15.9
2022-10-24T00:44:01.453Z,15.8
2022-10-24T00:45:01.025Z,15.8
2022-10-24T00:46:01.602Z,15.8
2022-10-24T00:47:01.176Z,15.8
2022-10-24T00:48:01.749Z,15.8
2022-10-24T00:49:01.343Z,15.8
2022-10-24T00:50:00.920Z,15.8
2022-10-24T00:51:01.488Z,15.8
2022-10-24T00:52:01.082Z,15.9
2022-10-24T00:53:01.659Z,15.9
2022-10-24T00:54:01.236Z,16
2022-10-24T00:55:01.806Z,16
2022-10-24T00:56:01.377Z,15.9
2022-10-24T00:57:00.967Z,15.9
2022-10-24T00:58:01.538Z,15.8
2022-10-24T00:59:01.116Z,15.8
2022-10-24T01:00:01.687Z,15.9
2022-10-24T01:01:01.432Z,15.9
2022-10-24T01:02:00.855Z,15.8
2022-10-24T01:03:01.420Z,15.8
2022-10-24T01:04:00.997Z,15.8
2022-10-24T01:05:01.572Z,15.9
2022-10-24T01:06:01.161Z,16
2022-10-24T01:07:01.727Z,15.9
2022-10-24T01:08:01.300Z,16
2022-10-24T01:09:00.895Z,16
2022-10-24T01:10:01.443Z,16
2022-10-24T01:11:01.028Z,16
2022-10-24T01:12:01.588Z,16
2022-10-24T01:13:01.159Z,16
2022-10-24T01:14:01.731Z,16
2022-10-24T01:15:01.301Z,16.1
2022-10-24T01:16:00.890Z,16.1
2022-10-24T01:17:01.446Z,16.1
2022-10-24T01:18:01.019Z,16.1
2022-10-24T01:19:01.611Z,16.1
2022-10-24T01:20:01.184Z,16.1
2022-10-24T01:21:01.756Z,16.1
2022-10-24T01:22:01.350Z,16.2
2022-10-24T01:23:00.923Z,16.1
2022-10-24T01:24:01.494Z,16.1
2022-10-24T01:25:01.092Z,16.1
2022-10-24T01:26:01.655Z,16
2022-10-24T01:27:01.274Z,16
2022-10-24T01:28:01.825Z,16
2022-10-24T01:29:01.400Z,16.1
2022-10-24T01:30:00.977Z,16.1
2022-10-24T01:31:01.556Z,16
2022-10-24T01:32:01.193Z,16
2022-10-24T01:33:01.719Z,16
2022-10-24T01:34:01.293Z,16
2022-10-24T01:35:00.865Z,16
2022-10-24T01:36:01.437Z,15.9
2022-10-24T01:37:01.024Z,15.9
2022-10-24T01:38:01.592Z,15.9
2022-10-24T01:39:01.166Z,15.9
2022-10-24T01:40:01.753Z,15.9
2022-10-24T01:41:01.368Z,16
2022-10-24T01:42:00.915Z,15.9
2022-10-24T01:43:01.488Z,15.9
2022-10-24T01:44:01.062Z,16
2022-10-24T01:45:01.657Z,16.1
2022-10-24T01:46:01.227Z,16.1
2022-10-24T01:47:01.800Z,16
2022-10-24T01:48:01.387Z,16
2022-10-24T01:49:00.967Z,15.9
2022-10-24T01:50:01.578Z,15.9
2022-10-24T01:51:01.155Z,15.8
2022-10-24T01:52:01.746Z,15.8
2022-10-24T01:53:01.390Z,15.7
2022-10-24T01:54:00.981Z,15.6
2022-10-24T01:55:01.571Z,15.7
2022-10-24T01:56:01.143Z,15.7
2022-10-24T01:57:01.741Z,15.7
2022-10-24T01:58:01.314Z,15.7
2022-10-24T01:59:00.890Z,15.8
2022-10-24T02:00:01.485Z,15.8
2022-10-24T02:01:01.188Z,15.7
2022-10-24T02:02:01.638Z,15.7
2022-10-24T02:03:01.210Z,15.8
2022-10-24T02:04:01.787Z,15.8
2022-10-24T02:05:01.381Z,15.9
2022-10-24T02:06:00.951Z,15.9
2022-10-24T02:07:01.526Z,16
2022-10-24T02:08:01.099Z,16
2022-10-24T02:09:01.723Z,16
2022-10-24T02:10:01.345Z,16
2022-10-24T02:11:00.902Z,16
2022-10-24T02:12:01.473Z,16.1
2022-10-24T02:13:01.067Z,16.1
2022-10-24T02:14:01.630Z,16
2022-10-24T02:15:01.217Z,16.1
2022-10-24T02:16:01.789Z,16
2022-10-24T02:17:01.362Z,16
2022-10-24T02:18:00.951Z,16.1
2022-10-24T02:19:01.515Z,16.1
2022-10-24T02:20:01.093Z,16
2022-10-24T02:21:01.666Z,16.1
2022-10-24T02:22:01.255Z,16.1
2022-10-24T02:23:01.835Z,16.2
2022-10-24T02:24:01.409Z,16.2
2022-10-24T02:25:00.983Z,16.2
2022-10-24T02:26:01.598Z,16.2
2022-10-24T02:27:01.218Z,16.1
2022-10-24T02:28:01.794Z,16.1
2022-10-24T02:29:01.406Z,16.1
2022-10-24T02:30:00.978Z,16.1
2022-10-24T02:31:01.552Z,16.1
2022-10-24T02:32:01.184Z,16.1
2022-10-24T02:33:01.708Z,16.2
2022-10-24T02:34:01.343Z,16
2022-10-24T02:35:00.853Z,16.1
2022-10-24T02:36:01.460Z,16.1
2022-10-24T02:37:01.098Z,16.1
2022-10-24T02:38:01.670Z,16.1
2022-10-24T02:39:01.244Z,16.1
2022-10-24T02:40:01.819Z,16.1
2022-10-24T02:41:01.390Z,16.1
2022-10-24T02:42:00.983Z,16.1
2022-10-24T02:43:01.564Z,16.1
2022-10-24T02:44:01.136Z,16
2022-10-24T02:45:01.731Z,16
2022-10-24T02:46:01.301Z,16.1
2022-10-24T02:47:00.907Z,16
2022-10-24T02:48:01.457Z,16
2022-10-24T02:49:01.027Z,16
2022-10-24T02:50:01.600Z,16
2022-10-24T02:51:01.172Z,16
2022-10-24T02:52:01.762Z,15.9
2022-10-24T02:53:01.333Z,15.9
2022-10-24T02:54:00.922Z,15.9
2022-10-24T02:55:01.490Z,15.9
2022-10-24T02:56:01.098Z,16
2022-10-24T02:57:01.641Z,15.9
2022-10-24T02:58:01.213Z,15.8
2022-10-24T02:59:01.842Z,15.9
2022-10-24T03:00:01.462Z,15.9
2022-10-24T03:01:01.237Z,15.8
2022-10-24T03:02:01.608Z,15.9
2022-10-24T03:03:01.198Z,15.8
2022-10-24T03:04:01.753Z,15.7
2022-10-24T03:05:01.325Z,15.7
2022-10-24T03:06:00.895Z,15.7
2022-10-24T03:07:01.468Z,15.8
2022-10-24T03:08:01.059Z,15.8
2022-10-24T03:09:01.647Z,15.7
2022-10-24T03:10:01.220Z,15.8
2022-10-24T03:11:01.791Z,15.8
2022-10-24T03:12:01.363Z,15.8
2022-10-24T03:13:00.934Z,15.8
2022-10-24T03:14:01.527Z,15.7
2022-10-24T03:15:01.100Z,15.7
2022-10-24T03:16:01.674Z,15.8
2022-10-24T03:17:01.275Z,15.8
2022-10-24T03:18:01.834Z,15.8
2022-10-24T03:19:01.423Z,15.8
2022-10-24T03:20:01.014Z,15.9
2022-10-24T03:21:01.571Z,16
2022-10-24T03:22:01.146Z,16
2022-10-24T03:23:01.722Z,16
2022-10-24T03:24:01.343Z,16.2
2022-10-24T03:25:00.899Z,16.3
2022-10-24T03:26:01.471Z,16.3
2022-10-24T03:27:01.044Z,16.3
2022-10-24T03:28:01.619Z,16.2
2022-10-24T03:29:01.212Z,16.2
2022-10-24T03:30:01.778Z,16.1
2022-10-24T03:31:01.350Z,16.1
2022-10-24T03:32:00.922Z,16.2
2022-10-24T03:33:01.563Z,16.1
2022-10-24T03:34:01.157Z,16.1
2022-10-24T03:35:01.723Z,16.1
2022-10-24T03:36:01.300Z,16.1
2022-10-24T03:37:00.870Z,16.1
2022-10-24T03:38:01.443Z,16
2022-10-24T03:39:01.031Z,16
2022-10-24T03:40:01.616Z,16
2022-10-24T03:41:01.244Z,16
2022-10-24T03:42:01.816Z,15.9
2022-10-24T03:43:01.391Z,15.9
2022-10-24T03:44:00.976Z,15.9
2022-10-24T03:45:01.572Z,15.8
2022-10-24T03:46:01.166Z,15.8
2022-10-24T03:47:01.738Z,15.8
2022-10-24T03:48:01.309Z,15.8
2022-10-24T03:50:01.509Z,15.8
2022-10-24T03:51:01.098Z,15.8
2022-10-24T03:52:01.659Z,15.8
2022-10-24T03:53:01.230Z,15.9
2022-10-24T03:54:01.802Z,15.8
2022-10-24T03:55:01.376Z,15.8
2022-10-24T03:56:00.967Z,15.8
2022-10-24T03:57:01.530Z,15.8
2022-10-24T03:58:01.103Z,15.8
2022-10-24T03:59:01.677Z,15.9
2022-10-24T04:00:01.250Z,15.9
2022-10-24T04:01:01.935Z,15.9
2022-10-24T04:02:01.652Z,15.9
2022-10-24T04:03:01.059Z,15.9
2022-10-24T04:04:01.634Z,15.8
2022-10-24T04:05:01.231Z,15.9
2022-10-24T04:06:01.809Z,16
2022-10-24T04:07:01.386Z,15.9
2022-10-24T04:08:00.962Z,16
2022-10-24T04:09:01.534Z,16
2022-10-24T04:10:01.108Z,16.1
2022-10-24T04:11:01.696Z,16.2
2022-10-24T04:12:01.267Z,16.3
2022-10-24T04:13:00.842Z,16.3
2022-10-24T04:15:02.525Z,16.4
2022-10-24T04:16:01.561Z,16.3
2022-10-24T04:17:01.133Z,16.5
2022-10-24T04:18:01.726Z,16.5
2022-10-24T04:19:01.300Z,16.7
2022-10-24T04:20:00.873Z,16.7
2022-10-24T04:21:01.490Z,16.6
2022-10-24T04:22:01.070Z,16.5
2022-10-24T04:23:03.647Z,16.5
2022-10-24T04:24:01.180Z,16.4
2022-10-24T04:25:01.753Z,16.4
2022-10-24T04:26:01.342Z,16.3
2022-10-24T04:27:00.908Z,16.3
2022-10-24T04:28:01.493Z,16.4
2022-10-24T04:29:01.066Z,16.3
2022-10-24T04:30:01.648Z,16.3
2022-10-24T04:31:01.237Z,16.3
2022-10-24T04:32:01.809Z,16.3
2022-10-24T04:33:01.400Z,16.3
2022-10-24T04:34:01.014Z,16.3
2022-10-24T04:35:01.571Z,16.4
2022-10-24T04:36:01.141Z,16.3
2022-10-24T04:37:01.738Z,16.4
2022-10-24T04:38:01.327Z,16.3
2022-10-24T04:40:01.460Z,16.4
2022-10-24T04:41:01.050Z,16.3
2022-10-24T04:42:01.625Z,16.2
2022-10-24T04:43:01.197Z,16.2
2022-10-24T04:44:01.772Z,16.1
2022-10-24T04:45:01.347Z,16.1
2022-10-24T04:46:00.940Z,16
2022-10-24T04:47:01.511Z,16
2022-10-24T04:48:01.089Z,16.1
2022-10-24T04:49:01.665Z,16
2022-10-24T04:50:01.241Z,15.9
2022-10-24T04:51:01.836Z,15.9
2022-10-24T04:52:01.413Z,15.9
2022-10-24T04:53:01.013Z,16
2022-10-24T04:54:01.558Z,16
2022-10-24T04:55:01.134Z,15.8
2022-10-24T04:56:01.720Z,15.8
2022-10-24T04:57:01.311Z,15.7
2022-10-24T04:58:00.878Z,15.7
2022-10-24T04:59:01.451Z,15.6
2022-10-24T05:00:01.026Z,15.6
2022-10-24T05:01:01.675Z,15.6
2022-10-24T05:02:01.297Z,15.6
2022-10-24T05:03:00.848Z,15.6
2022-10-24T05:05:00.986Z,15.6
2022-10-24T05:06:01.558Z,15.6
2022-10-24T05:07:01.155Z,15.7
2022-10-24T05:08:01.715Z,15.6
2022-10-24T05:09:01.319Z,15.6
2022-10-24T05:10:00.868Z,15.7
2022-10-24T05:11:01.460Z,15.7
2022-10-24T05:12:01.051Z,15.7
2022-10-24T05:13:01.610Z,15.7
2022-10-24T05:14:01.182Z,15.7
2022-10-24T05:15:01.760Z,15.6
2022-10-24T05:16:01.352Z,15.6
2022-10-24T05:17:00.942Z,15.7
2022-10-24T05:18:01.503Z,15.7
2022-10-24T05:19:01.075Z,15.6
2022-10-24T05:20:01.649Z,15.7
2022-10-24T05:21:01.221Z,15.8
2022-10-24T05:22:02.521Z,15.8
2022-10-24T05:23:01.351Z,15.8
2022-10-24T05:24:00.928Z,15.8
2022-10-24T05:25:01.520Z,15.7
2022-10-24T05:26:01.096Z,15.8
2022-10-24T05:27:01.716Z,15.8
2022-10-24T05:28:01.290Z,15.8
2022-10-24T05:29:00.905Z,15.8
2022-10-24T05:30:01.440Z,15.8
2022-10-24T05:31:01.010Z,15.8
2022-10-24T05:32:01.605Z,15.8
2022-10-24T05:33:01.177Z,15.9
2022-10-24T05:34:01.796Z,15.9
2022-10-24T05:35:01.368Z,16
2022-10-24T05:36:00.940Z,16
2022-10-24T05:37:01.532Z,16
2022-10-24T05:38:01.103Z,16.1
2022-10-24T05:39:01.675Z,16
2022-10-24T05:40:01.252Z,15.9
2022-10-24T05:41:01.911Z,15.9
2022-10-24T05:42:01.502Z,15.9
2022-10-24T05:43:01.083Z,15.8
2022-10-24T05:44:01.654Z,15.8
2022-10-24T05:45:01.231Z,15.8
2022-10-24T05:46:01.806Z,15.8
2022-10-24T05:47:01.400Z,15.8
2022-10-24T05:48:00.974Z,15.9
2022-10-24T05:49:01.568Z,15.9
2022-10-24T05:50:01.141Z,15.9
2022-10-24T05:51:01.717Z,16
2022-10-24T05:52:01.311Z,16
2022-10-24T05:53:00.881Z,15.9
2022-10-24T05:54:01.564Z,16
2022-10-24T05:55:08.559Z,15.9
2022-10-24T05:56:01.642Z,15.8
2022-10-24T05:57:01.256Z,15.8
2022-10-24T05:58:01.799Z,15.7
2022-10-24T05:59:01.393Z,15.7
2022-10-24T06:00:01.032Z,15.8
2022-10-24T06:01:01.604Z,15.9
2022-10-24T06:02:01.304Z,15.8
2022-10-24T06:03:01.796Z,15.8
2022-10-24T06:04:01.392Z,15.8
2022-10-24T06:05:00.964Z,15.8
2022-10-24T06:06:01.557Z,15.9
2022-10-24T06:07:01.132Z,15.9
2022-10-24T06:08:01.704Z,15.8
2022-10-24T06:09:01.280Z,15.8
2022-10-24T06:10:00.853Z,15.9
2022-10-24T06:11:01.441Z,15.9
2022-10-24T06:12:01.016Z,15.9
2022-10-24T06:13:01.619Z,16
2022-10-24T06:14:01.194Z,15.9
2022-10-24T06:15:01.774Z,15.9
2022-10-24T06:16:01.368Z,15.8
2022-10-24T06:17:00.944Z,15.8
2022-10-24T06:18:01.517Z,15.8
2022-10-24T06:19:01.093Z,15.9
2022-10-24T06:20:01.684Z,15.9
2022-10-24T06:21:01.258Z,15.9
2022-10-24T06:22:01.835Z,15.9
2022-10-24T06:23:01.423Z,15.9
2022-10-24T06:24:00.998Z,16
2022-10-24T06:25:01.593Z,15.9
2022-10-24T06:26:01.165Z,16
2022-10-24T06:27:01.740Z,16.1
2022-10-24T06:28:01.357Z,16.1
2022-10-24T06:29:00.929Z,16.1
2022-10-24T06:30:01.503Z,16.1
2022-10-24T06:31:01.075Z,16
2022-10-24T06:32:01.650Z,16.1
2022-10-24T06:33:01.229Z,16
2022-10-24T06:34:01.819Z,16.2
2022-10-24T06:35:01.439Z,16.3
2022-10-24T06:36:01.033Z,16.4
2022-10-24T06:37:01.592Z,16.3
2022-10-24T06:38:01.167Z,16.3
2022-10-24T06:39:01.753Z,16.3
2022-10-24T06:40:01.330Z,16.3
2022-10-24T06:41:00.921Z,16.3
2022-10-24T06:42:01.500Z,16.3
2022-10-24T06:43:01.075Z,16.2
2022-10-24T06:44:01.647Z,16.1
2022-10-24T06:45:01.249Z,16.1
2022-10-24T06:46:01.820Z,16.1
2022-10-24T06:47:01.393Z,16.1
2022-10-24T06:48:00.969Z,16.2
2022-10-24T06:49:01.541Z,16.2
2022-10-24T06:50:01.138Z,16.3
2022-10-24T06:51:01.719Z,16.4
2022-10-24T06:52:01.313Z,16.3
2022-10-24T06:53:00.885Z,16.3
2022-10-24T06:54:01.458Z,16.3
2022-10-24T06:55:01.046Z,16.3
2022-10-24T06:56:01.605Z,16.3
2022-10-24T06:57:01.178Z,16.3
2022-10-24T06:58:01.766Z,16.3
2022-10-24T06:59:01.859Z,16.3
2022-10-24T07:00:01.433Z,16.3
2022-10-24T07:01:01.162Z,16.4
2022-10-24T07:02:03.405Z,16.4
2022-10-24T07:03:01.348Z,16.3
2022-10-24T07:04:00.923Z,16.3
2022-10-24T07:05:01.496Z,16.3
2022-10-24T07:06:01.104Z,16.4
2022-10-24T07:07:01.646Z,16.3
2022-10-24T07:08:01.216Z,16.3
2022-10-24T07:09:01.792Z,16.4
2022-10-24T07:10:01.365Z,16.5
2022-10-24T07:11:00.952Z,16.6
2022-10-24T07:12:01.538Z,16.6
2022-10-24T07:13:01.124Z,16.7
2022-10-24T07:14:03.487Z,16.8
2022-10-24T07:15:01.235Z,16.8
2022-10-24T07:16:01.807Z,16.9
2022-10-24T07:17:01.433Z,16.9
2022-10-24T07:18:01.004Z,16.9
2022-10-24T07:19:01.581Z,16.8
2022-10-24T07:20:01.153Z,16.9
2022-10-24T07:21:01.732Z,16.9
2022-10-24T07:22:01.322Z,16.9
2022-10-24T07:23:00.887Z,17
2022-10-24T07:24:01.466Z,17
2022-10-24T07:25:01.045Z,16.9
2022-10-24T07:26:01.618Z,16.9
2022-10-24T07:27:01.207Z,16.9
2022-10-24T07:28:01.791Z,16.9
2022-10-24T07:30:01.675Z,17
2022-10-24T07:31:01.478Z,17.1
2022-10-24T07:32:01.069Z,17.2
2022-10-24T07:33:01.678Z,17.2
2022-10-24T07:34:01.256Z,17.1
2022-10-24T07:35:01.829Z,17.1
2022-10-24T07:36:01.489Z,17.2
2022-10-24T07:37:01.096Z,17.2
2022-10-24T07:38:01.664Z,17.2
2022-10-24T07:39:01.240Z,17.1
2022-10-24T07:40:01.832Z,17.1
2022-10-24T07:41:01.413Z,17.2
2022-10-24T07:42:01.005Z,17.3
2022-10-24T07:43:01.570Z,17.2
2022-10-24T07:44:01.161Z,17.2
2022-10-24T07:45:01.732Z,17.2
2022-10-24T07:47:00.869Z,17.3
2022-10-24T07:48:01.442Z,17.3
2022-10-24T07:49:01.059Z,17.3
2022-10-24T07:50:01.620Z,17.2
2022-10-24T07:51:01.198Z,17.2
2022-10-24T07:52:01.771Z,17.2
2022-10-24T07:53:01.346Z,17.2
2022-10-24T07:54:00.947Z,17.2
2022-10-24T07:55:01.504Z,17.1
2022-10-24T07:56:01.108Z,17.1
2022-10-24T07:57:01.680Z,17
2022-10-24T07:58:01.253Z,17.1
2022-10-24T07:59:05.755Z,17.1
2022-10-24T08:00:01.380Z,17.2
2022-10-24T08:01:01.006Z,17.2
2022-10-24T08:02:01.531Z,17.2
2022-10-24T08:03:01.105Z,17.2
2022-10-24T08:04:01.696Z,17.2
2022-10-24T08:05:01.292Z,17.2
2022-10-24T08:06:01.843Z,17.1
2022-10-24T08:07:01.414Z,17.1
2022-10-24T08:08:19.962Z,17.1
2022-10-24T08:09:01.551Z,17.1
2022-10-24T08:10:01.125Z,17.1
2022-10-24T08:12:01.261Z,17
2022-10-24T08:13:01.836Z,17
2022-10-24T08:14:01.427Z,17
2022-10-24T08:15:01.005Z,17
2022-10-24T08:16:01.579Z,17.1
2022-10-24T08:17:01.151Z,17.2
2022-10-24T08:18:01.725Z,17.2
2022-10-24T08:19:01.313Z,17.4
2022-10-24T08:20:00.896Z,17.5
2022-10-24T08:21:01.493Z,17.7
2022-10-24T08:22:01.065Z,17.7
2022-10-24T08:23:01.639Z,17.8
2022-10-24T08:24:01.228Z,17.7
2022-10-24T08:25:01.817Z,17.7
2022-10-24T08:26:01.387Z,17.8
2022-10-24T08:27:00.960Z,17.8
2022-10-24T08:28:02.753Z,17.8
2022-10-24T08:29:01.086Z,17.8
2022-10-24T08:30:01.659Z,17.8
2022-10-24T08:31:01.237Z,17.9
2022-10-24T08:32:01.813Z,17.9
2022-10-24T08:33:01.390Z,17.8
2022-10-24T08:34:00.982Z,17.8
2022-10-24T08:35:01.549Z,17.8
2022-10-24T08:36:01.184Z,17.7
2022-10-24T08:37:01.731Z,17.8
2022-10-24T08:38:01.301Z,17.8
2022-10-24T08:39:00.885Z,17.7
2022-10-24T08:40:01.460Z,17.7
2022-10-24T08:41:01.045Z,17.7
2022-10-24T08:42:01.630Z,17.7
2022-10-24T08:43:01.201Z,17.7
2022-10-24T08:44:01.778Z,17.8
2022-10-24T08:45:01.353Z,17.8
2022-10-24T08:46:00.932Z,17.8
2022-10-24T08:47:01.521Z,17.8
2022-10-24T08:48:01.099Z,17.8
2022-10-24T08:49:01.670Z,17.8
2022-10-24T08:50:01.242Z,17.8
2022-10-24T08:51:01.817Z,17.9
2022-10-24T08:52:01.403Z,17.9
2022-10-24T08:53:01.070Z,18
2022-10-24T08:54:01.568Z,17.9
2022-10-24T08:55:04.613Z,18.1
2022-10-24T08:56:01.680Z,18.1
2022-10-24T08:57:01.272Z,17.9
2022-10-24T08:58:01.841Z,17.8
2022-10-24T08:59:01.416Z,17.8
2022-10-24T09:00:00.987Z,17.9
2022-10-24T09:01:01.730Z,17.9
2022-10-24T09:02:03.339Z,17.8
2022-10-24T09:03:01.851Z,17.8
2022-10-24T09:04:01.588Z,17.9
2022-10-24T09:05:01.049Z,17.9
2022-10-24T09:06:01.619Z,17.8
2022-10-24T09:07:01.235Z,17.8
2022-10-24T09:08:01.768Z,17.6
2022-10-24T09:09:01.389Z,17.6
2022-10-24T09:10:00.924Z,17.7
2022-10-24T09:11:01.502Z,17.6
2022-10-24T09:12:01.106Z,17.7
2022-10-24T09:13:01.677Z,17.7
2022-10-24T09:14:01.261Z,17.7
2022-10-24T09:15:01.829Z,17.7
2022-10-24T09:16:01.420Z,17.6
2022-10-24T09:17:01.014Z,17.6
2022-10-24T09:18:01.584Z,17.5
2022-10-24T09:19:01.162Z,17.6
2022-10-24T09:20:01.737Z,17.6
2022-10-24T09:21:01.315Z,17.5
2022-10-24T09:22:00.906Z,17.5
2022-10-24T09:23:01.479Z,17.4
2022-10-24T09:24:01.057Z,17.5
2022-10-24T09:25:01.656Z,17.5
2022-10-24T09:26:01.245Z,17.5
2022-10-24T09:27:01.804Z,17.5
2022-10-24T09:28:01.392Z,17.6
2022-10-24T09:29:00.969Z,17.4
2022-10-24T09:30:01.544Z,17.4
2022-10-24T09:31:01.136Z,17.4
2022-10-24T09:32:01.709Z,17.3
2022-10-24T09:33:01.280Z,17.3
2022-10-24T09:34:01.850Z,17.4
2022-10-24T09:35:01.420Z,17.4
2022-10-24T09:36:01.008Z,17.4
2022-10-24T09:37:01.610Z,17.4
2022-10-24T09:38:01.196Z,17.3
2022-10-24T09:39:01.753Z,17.4
2022-10-24T09:40:01.329Z,17.5
2022-10-24T09:41:00.925Z,17.5
2022-10-24T09:42:01.488Z,17.7
2022-10-24T09:43:01.081Z,17.8
2022-10-24T09:44:01.651Z,17.8
2022-10-24T09:45:01.223Z,17.7
2022-10-24T09:46:01.796Z,17.8
2022-10-24T09:47:01.403Z,17.8
2022-10-24T09:48:00.994Z,17.8
2022-10-24T09:49:01.568Z,17.8
2022-10-24T09:50:01.142Z,17.7
2022-10-24T09:51:01.715Z,17.5
2022-10-24T09:52:01.292Z,17.5
2022-10-24T09:53:00.886Z,17.4
2022-10-24T09:54:01.474Z,17.5
2022-10-24T09:55:01.046Z,17.5
2022-10-24T09:56:01.618Z,17.5
2022-10-24T09:57:01.326Z,17.4
2022-10-24T09:58:01.783Z,17.4
2022-10-24T09:59:01.373Z,17.5
2022-10-24T10:00:00.945Z,17.6
2022-10-24T10:01:01.640Z,17.6
2022-10-24T10:02:01.239Z,17.7
2022-10-24T10:03:01.771Z,17.6
2022-10-24T10:04:04.941Z,17.6
2022-10-24T10:05:00.901Z,17.7
2022-10-24T10:06:01.477Z,17.6
2022-10-24T10:07:01.070Z,17.7
2022-10-24T10:08:01.622Z,17.8
2022-10-24T10:09:01.218Z,17.8
2022-10-24T10:10:01.780Z,17.8
2022-10-24T10:11:01.351Z,17.8
2022-10-24T10:12:02.725Z,17.8
2022-10-24T10:13:01.501Z,17.8
2022-10-24T10:14:01.074Z,17.9
2022-10-24T10:15:01.646Z,17.9
2022-10-24T10:16:01.217Z,18
2022-10-24T10:17:01.810Z,18
2022-10-24T10:18:01.384Z,18
2022-10-24T10:19:00.960Z,18
2022-10-24T10:20:01.550Z,18.1
2022-10-24T10:21:01.121Z,17.9
2022-10-24T10:22:01.693Z,18
2022-10-24T10:23:01.275Z,17.8
2022-10-24T10:24:01.847Z,17.8
2022-10-24T10:25:01.549Z,17.9
2022-10-24T10:26:01.087Z,17.8
2022-10-24T10:27:01.663Z,17.7
2022-10-24T10:28:02.450Z,17.7
2022-10-24T10:29:01.795Z,17.7
2022-10-24T10:30:01.384Z,17.7
2022-10-24T10:31:00.955Z,17.7
2022-10-24T10:32:01.532Z,17.9
2022-10-24T10:33:01.104Z,18
2022-10-24T10:34:01.677Z,18.1
2022-10-24T10:35:01.267Z,18
2022-10-24T10:36:01.839Z,18
2022-10-24T10:37:01.416Z,18
2022-10-24T10:38:01.038Z,18
2022-10-24T10:39:01.567Z,18
2022-10-24T10:40:01.183Z,18
2022-10-24T10:41:01.726Z,18
2022-10-24T10:42:01.301Z,18
2022-10-24T10:43:00.879Z,17.8
2022-10-24T10:44:01.450Z,17.8
2022-10-24T10:45:01.066Z,17.8
2022-10-24T10:46:01.614Z,17.8
2022-10-24T10:47:01.186Z,17.9
2022-10-24T10:48:01.775Z,18
2022-10-24T10:49:01.356Z,18.1
2022-10-24T10:50:00.928Z,18.2
2022-10-24T10:51:03.254Z,18.3
2022-10-24T10:52:01.057Z,18.3
2022-10-24T10:53:01.632Z,18.2
2022-10-24T10:54:01.208Z,18.2
2022-10-24T10:55:01.779Z,18.4
2022-10-24T10:56:01.349Z,18.4
2022-10-24T10:57:00.938Z,18.3
2022-10-24T10:58:01.511Z,18.3
2022-10-24T10:59:01.090Z,18.3
2022-10-24T11:00:01.665Z,18.2
2022-10-24T11:01:01.418Z,18.2
2022-10-24T11:02:02.091Z,18.3
2022-10-24T11:03:01.803Z,18.1
2022-10-24T11:04:01.056Z,18
2022-10-24T11:05:01.629Z,18
2022-10-24T11:06:01.202Z,18
2022-10-24T11:07:01.825Z,18
2022-10-24T11:08:01.437Z,18.1
2022-10-24T11:09:01.003Z,18
2022-10-24T11:10:01.587Z,18
2022-10-24T11:11:01.164Z,18.1
2022-10-24T11:12:01.762Z,18.1
2022-10-24T11:13:01.334Z,18.1
2022-10-24T11:14:00.909Z,18.2
2022-10-24T11:15:01.482Z,18.2
2022-10-24T11:16:01.059Z,18.1
2022-10-24T11:17:01.668Z,18.2
2022-10-24T11:18:01.255Z,18.1
2022-10-24T11:19:01.823Z,18.1
2022-10-24T11:20:01.393Z,18.1
2022-10-24T11:21:00.962Z,18
2022-10-24T11:22:01.553Z,17.9
2022-10-24T11:23:01.126Z,18.1
2022-10-24T11:24:01.697Z,18.1
2022-10-24T11:25:01.270Z,18.1
2022-10-24T11:26:01.847Z,18.2
2022-10-24T11:27:01.433Z,18.1
2022-10-24T11:28:01.024Z,18.1
2022-10-24T11:29:01.589Z,18.2
2022-10-24T11:30:01.163Z,18.2
2022-10-24T11:31:01.740Z,18.2
2022-10-24T11:32:01.363Z,18.3
2022-10-24T11:33:00.935Z,18.3
2022-10-24T11:34:01.482Z,18.3
2022-10-24T11:35:01.060Z,18.4
2022-10-24T11:36:01.628Z,18.5
2022-10-24T11:37:01.232Z,18.7
2022-10-24T11:38:01.835Z,18.7
2022-10-24T11:39:01.408Z,18.7
2022-10-24T11:40:00.982Z,18.7
2022-10-24T11:41:01.563Z,18.6
2022-10-24T11:42:01.257Z,18.3
2022-10-24T11:43:01.795Z,18.3
2022-10-24T11:44:01.586Z,18.2
2022-10-24T11:45:01.039Z,18.1
2022-10-24T11:46:01.613Z,18.4
2022-10-24T11:47:05.586Z,18.7
2022-10-24T11:48:01.754Z,18.8
2022-10-24T11:49:01.353Z,19
2022-10-24T11:50:00.914Z,18.9
2022-10-24T11:51:01.486Z,18.9
2022-10-24T11:52:01.058Z,18.5
2022-10-24T11:53:01.646Z,18.3
2022-10-24T11:54:01.220Z,18.2
2022-10-24T11:55:01.802Z,18.2
2022-10-24T11:56:01.372Z,18.6
2022-10-24T11:57:00.956Z,18.5
2022-10-24T11:58:01.553Z,18.2
2022-10-24T11:59:01.126Z,18
2022-10-24T12:00:01.697Z,18
2022-10-24T12:01:01.280Z,18.1
2022-10-24T12:02:01.854Z,17.8
2022-10-24T12:03:01.495Z,17.8
2022-10-24T12:04:01.100Z,17.9
2022-10-24T12:05:01.697Z,18
2022-10-24T12:06:01.267Z,17.8
2022-10-24T12:07:01.840Z,17.8
2022-10-24T12:08:01.426Z,17.9
2022-10-24T12:09:00.999Z,17.9
2022-10-24T12:10:01.586Z,17.9
2022-10-24T12:11:01.167Z,17.9
2022-10-24T12:12:01.741Z,18
2022-10-24T12:13:01.316Z,18.1
2022-10-24T12:15:01.507Z,18.1
2022-10-24T12:16:01.079Z,18
2022-10-24T12:17:01.652Z,17.9
2022-10-24T12:18:01.226Z,17.8
2022-10-24T12:19:01.795Z,17.8
2022-10-24T12:20:01.380Z,17.8
2022-10-24T12:21:01.044Z,17.7
2022-10-24T12:22:01.592Z,17.7
2022-10-24T12:23:01.163Z,17.8
2022-10-24T12:24:01.751Z,17.9
2022-10-24T12:25:01.352Z,18
2022-10-24T12:26:00.907Z,18
2022-10-24T12:27:01.478Z,18
2022-10-24T12:28:01.056Z,18.1
2022-10-24T12:29:01.642Z,18.2
2022-10-24T12:30:01.215Z,18.3
2022-10-24T12:31:01.806Z,18.2
2022-10-24T12:32:01.379Z,18.2
2022-10-24T12:33:00.954Z,18.1
2022-10-24T12:34:01.527Z,18.5
2022-10-24T12:36:01.655Z,18.2
2022-10-24T12:37:01.262Z,17.8
2022-10-24T12:38:01.819Z,17.8
2022-10-24T12:39:01.432Z,17.9
2022-10-24T12:40:01.005Z,17.8
2022-10-24T12:41:01.593Z,17.8
2022-10-24T12:42:01.179Z,17.6
2022-10-24T12:43:01.748Z,17.5
2022-10-24T12:44:01.325Z,17.6
2022-10-24T12:45:00.898Z,17.6
2022-10-24T12:46:01.547Z,17.8
2022-10-24T12:47:01.133Z,17.9
2022-10-24T12:48:01.709Z,17.8
2022-10-24T12:49:01.286Z,17.7
2022-10-24T12:50:01.856Z,17.7
2022-10-24T12:51:01.439Z,17.8
2022-10-24T12:52:01.042Z,17.8
2022-10-24T12:53:01.635Z,17.8
2022-10-24T12:54:01.205Z,17.9
2022-10-24T12:55:01.777Z,17.8
2022-10-24T12:56:01.354Z,17.9
2022-10-24T12:57:00.927Z,17.8
2022-10-24T12:58:01.515Z,17.6
2022-10-24T12:59:01.090Z,17.5
2022-10-24T13:00:01.661Z,17.6
2022-10-24T13:01:01.317Z,17.5
2022-10-24T13:02:03.515Z,17.6
2022-10-24T13:03:01.371Z,17.5
2022-10-24T13:04:00.957Z,17.5
2022-10-24T13:05:01.529Z,17.2
2022-10-24T13:06:01.101Z,17.1
2022-10-24T13:07:01.675Z,16.9
2022-10-24T13:08:01.252Z,16.8
2022-10-24T13:09:01.863Z,17
2022-10-24T13:10:01.432Z,17.1
2022-10-24T13:11:01.005Z,17.3
2022-10-24T13:12:01.579Z,17.4
2022-10-24T13:13:01.181Z,17.4
2022-10-24T13:14:01.768Z,17.5
2022-10-24T13:15:01.343Z,17.6
2022-10-24T13:16:00.914Z,17.7
2022-10-24T13:17:01.489Z,17.7
2022-10-24T13:18:01.069Z,17.3
2022-10-24T13:19:01.657Z,17.3
2022-10-24T13:20:01.242Z,17.3
2022-10-24T13:21:01.813Z,17.2
2022-10-24T13:22:01.384Z,17.3
2022-10-24T13:23:00.956Z,17.3
2022-10-24T13:24:01.534Z,17.3
2022-10-24T13:25:01.145Z,17.1
2022-10-24T13:26:01.686Z,17.1
2022-10-24T13:27:01.256Z,17.2
2022-10-24T13:28:01.835Z,17.3
2022-10-24T13:29:01.414Z,17.3
2022-10-24T13:30:01.004Z,17.2
2022-10-24T13:31:01.575Z,17.2
2022-10-24T13:32:01.150Z,17.2
2022-10-24T13:33:01.726Z,17.2
2022-10-24T13:34:01.299Z,17.1
2022-10-24T13:35:01.886Z,16.9